RESULTATS »

INSCRITS PRESENTATS ACABEN RETIRATS DESQUALIFICATS DIST. TRAM 1 DIST. TRAM 2 DIST. TRAM 3 TEMP. EXT TEMP. AIGUA
450 432 15 3 750 20 5 17 14

CLASSIFICACIÓ

MASCULÍ FEMENÍ CATEGORIES CLUBS (MASCULINA) CLUBS (FEMENINA) INDIVIDUALS GRUPS D'EDAT

LLOCDORSALNOMCLUBCAT.T.META| P.Tram 1 || P.Tram 2 |Km/hTEMPS| P.Tram 3 |PARC_1PARC_2
1 3518ANNA FLAQUER PORTIFASTTRIATLON CLUBSUB23F01:04:192700:08:418400:36:5032.5800:45:3110200:18:480:00:000:00:00
2 3516NURIA PEIX TARRESC.N. VIC-ETBSUB23F01:04:393800:09:077500:36:2832.9100:45:3511800:19:040:00:000:00:00
3 5143MARTA SANCHEZ HERNANDEZC.N. VIC-ETBSUB23F01:05:552400:08:398600:37:0032.4300:45:3921100:20:160:00:000:00:00
4 1940ANNA ROVIRA GARRIDOTEAM CALELLA TRIATHLONABF01:06:0728100:12:256200:36:0233.3000:48:274200:17:400:00:000:00:00
5 4040LAIA CONESA I MURFASTTRIATLON CLUBJNF01:07:499700:10:0714900:38:5630.8200:49:039900:18:460:00:000:00:00
6 5080PAULA BATLLE I PLANTADAFASTTRIATLON CLUBJNF01:08:266900:09:3915000:38:5730.8100:48:3617600:19:500:00:000:00:00
7 4045IRENE RODRIGUEZ GUELLCLUB TRIATLO BLANESABF01:11:1421500:11:4916700:39:2030.5100:51:0919400:20:050:00:000:00:00
8 5199ANNA CARRIÓN I BAREAINDEPENDENTCDF01:11:542600:08:4024200:41:5728.6100:50:3727700:21:170:00:000:00:00
9 4055CARLA FIGUERA FERRERFASTTRIATLON CLUBABF01:12:2714900:10:5918500:39:5930.0100:50:5828700:21:290:00:000:00:00
10 5124IVETTE MOLINO RAMÍREZC.N. VIC-ETBABF01:12:4813800:10:4720000:40:3129.6200:51:1828800:21:300:00:000:00:00
11 3501MIRIAM CODINA CASTILLOCLUB TRIATLO GRANOLLERSABF01:12:5320400:11:4221600:40:5629.3200:52:3820800:20:150:00:000:00:00
12 1815BELÉN SALOMONI SCHWABC.N. VIC-ETBABF01:12:5714100:10:4922700:41:1629.0800:52:0524600:20:520:00:000:00:00
13 64GEMMA DIAZ RUIZGAVA TRIATLOCDF01:13:0511800:10:2521700:40:5729.3000:51:2229900:21:430:00:000:00:00
14 2000LAIA GALI MONTIELC.T. S.J. ABADESSESABF01:13:3523900:12:0320300:40:3729.5400:52:4025000:20:550:00:000:00:00
15 1987JOANA MARTINEZ CARRIONC.N. MATAROV1F01:14:3114500:10:5519900:40:3129.6200:51:2634900:23:050:00:000:00:00
16 5027MARTA ROMANCE OMSC.N. SABADELLCDF01:14:4616700:11:2124700:42:0928.4700:53:3027200:21:160:00:000:00:00
17 3534ALICIA MONTORO ORTACLUB TRIATLO GRANOLLERSABF01:15:5125400:12:1025300:42:2428.3000:54:3427500:21:170:00:000:00:00
18 1983JUDIT CARRERAS RUIZCLUB TRIATLO BADIA DEL VACDF01:16:097900:09:5229400:43:4427.4400:53:3633300:22:330:00:000:00:00
19 5019CORAL MONTAÑA PONSACLUB TRIATLO GRANOLLERSV1F01:16:4827500:12:2226300:42:3828.1500:55:0030100:21:480:00:000:00:00
20 7059ANDREA SOLDEVILA SANCHEZLLICENCIA DE DIAJNF01:16:4932200:12:5711200:37:4931.7300:50:4641400:26:030:00:000:00:00
21 4077MARTA MARTIN ALEGREC.E. SISTRELLSABF01:17:2530700:12:4329800:43:5527.3200:56:3824100:20:470:00:000:00:00
22 5069NURIA BRUGUERA ROIGC.N. MATAROABF01:17:3621400:11:4831800:44:3726.9000:56:2526500:21:110:00:000:00:00
23 27ÈLIA IBARRA CAZORLAC.A. IGUALADACDF01:17:548000:09:5236600:47:0025.5300:56:5225700:21:020:00:000:00:00
24 5171CRISTINA CLERIES VILAMAJOCLUB TRIATLO BLANESABF01:18:1228600:12:2727500:43:0527.8500:55:3233700:22:400:00:000:00:00
25 4003TANIA GUERRA ROMEROPRAT TRIATLO 1994ABF01:18:1316000:11:1434700:46:0626.0300:57:2024800:20:530:00:000:00:00
26 3524IRENE CASADO NAVARROTRIENJOY TEAMABF01:18:5235700:13:4930500:44:0827.1900:57:5724900:20:550:00:000:00:00
27 3585MARTA COSANO BOFILLCLUB NATACIO BARCELONACDF01:18:597500:09:4936900:47:1625.3900:57:0530600:21:540:00:000:00:00
28 1828RAQUEL MARTIN FERNANDEZC.N. MATAROABF01:19:5920900:11:4628300:43:2427.6500:55:1039800:24:490:00:000:00:00
29 1831LAIA SALVADOR LLADOC.N. MATAROV1F01:20:0136600:14:0728500:43:2927.6000:57:3632700:22:250:00:000:00:00
30 5145NÚRIA PRAT LANZACLUB ESPORTIU CUBE MANRESCDF01:20:5016400:11:1732400:44:5426.7300:56:1139500:24:390:00:000:00:00
31 5023PATRICIA MONTIEL ARMAST-BIKES CLUB TRIATLOABF01:21:0423600:12:0034500:45:5826.1100:57:5835000:23:060:00:000:00:00
32 5014NOELIA GALLARDO LINARESCLUB TRIATLO BLANESABF01:21:1432500:13:0432700:44:5726.7000:58:0135500:23:130:00:000:00:00
33 6028SHEILA MARTÍNEZ COLLELLLLICENCIA DE DIAABF01:22:04000:00:00000:00:000.0000:59:0034600:23:040:00:000:00:00
34 7050ANA MORACHO VELASCOLLICENCIA DE DIAABF01:22:0430400:12:4036200:46:5125.6100:59:3133200:22:330:00:000:00:00
35 50YAZMIN DEL MAR SANCHIS BOC.N. TERRASSA-CICLES MOREJNF01:22:5921800:11:5133600:45:3226.3500:57:2340800:25:360:00:000:00:00
36 1868CLAUDIA MAYNE CUSELLCLUB NATACIO BARCELONACDF01:23:008600:09:5537600:47:4425.1400:57:3940500:25:210:00:000:00:00
37 5048MIRIAM MURILLO BLAZQUEZC.E. NO TE PARESJNF01:23:1221700:11:5137900:47:5525.0400:59:4636100:23:260:00:000:00:00
38 6005KATHRYN EZRALLICENCIA DE DIAABF01:23:1631100:12:4539300:49:4824.1001:02:3323700:20:430:00:000:00:00
39 7038PILAR PÉREZ GONZÁLEZ LLICENCIA DE DIAABF01:23:1624100:12:0340400:50:3323.7401:02:3623400:20:400:00:000:00:00
40 4098ÀNGELS PRAT MÉNDEZCLUB ESPORTIU TRI 4.40JNF01:23:1936800:14:1034100:45:4326.2500:59:5336200:23:260:00:000:00:00
41 3506ALEJANDRA PALOMARES PALMAC.N. CASTELLET TRIATLÓJNF01:23:2912400:10:3233800:45:4126.2700:56:1342200:27:160:00:000:00:00
42 5010IRENE MELINA ARAQUE BEKKITEAM CALELLA TRIATHLONABF01:24:1939100:14:4337200:47:2525.3101:02:0831800:22:110:00:000:00:00
43 7036JUDITH RIERA BORRASLLICENCIA DE DIAV1F01:24:3541400:15:4533200:45:2426.4301:01:0936300:23:260:00:000:00:00
44 5153M.ANGELES CHAMORRO VILLANCLUB TRIATLO I RUN WITH LV1F01:25:1639700:14:5338500:48:1224.9001:03:0531900:22:110:00:000:00:00
45 1851MARTA SANCHEZ SALINASCLUB TRIATLO L´EIX DE NAVV1F01:25:2838200:14:3337700:47:4825.1001:02:2135100:23:070:00:000:00:00
46 4015VANESA VAZQUEZ RIVAS DE RTRIATLO GIRONA COSTA BRAVABF01:25:3629100:12:3039400:49:5324.0601:02:2335600:23:130:00:000:00:00
47 4002LARA AZNAR BELTRANCLUB NATACIO BARCELONACDF01:26:085300:09:2541300:52:0123.0701:01:2639600:24:420:00:000:00:00
48 5108MARIA ESPINOSA DEL ALBACLUB NATACIO BARCELONACDF01:26:0814000:10:4840700:50:5023.6101:01:3839200:24:300:00:000:00:00
49 78LAURA GIL CASQUETETRI2WINABF01:26:2638100:14:3337100:47:2325.3301:01:5639100:24:300:00:000:00:00
50 7051ANTONIA GUERRERO GOMEZLLICENCIA DE DIAABF01:26:4737600:14:2839900:50:1023.9201:04:3831600:22:090:00:000:00:00
51 7052JUDITH BUENO GOMEZLLICENCIA DE DIAABF01:26:4739800:14:5337300:47:2825.2801:02:2138800:24:260:00:000:00:00
52 5165ZAIDA CARRERAS MEDINAC.E. NO TE PARESV1F01:27:3141100:15:3737000:47:1825.3701:02:5539400:24:360:00:000:00:00
53 6006LAURA VILLARET IZQUIERDOLLICENCIA DE DIAABF01:28:2442300:17:1634300:45:4626.2201:03:0240600:25:220:00:000:00:00
54 4049ISABEL LLOPIS JURADOCLUB TRIATLO I RUN WITH LV1F01:29:1539300:14:4640200:50:2223.8301:05:0838300:24:070:00:000:00:00
55 6024RAQUEL MARTÍN IBÁÑEZLLICENCIA DE DIAV1F01:29:5440200:15:0440600:50:4523.6501:05:4938000:24:050:00:000:00:00
56 7049MIREILLE LAPEÑA CALABUYLLICENCIA DE DIAABF01:30:1239900:14:5438800:48:5724.5101:03:5141600:26:210:00:000:00:00
57 5054SILVIA ROSENDO NAVARROC.N. SABADELLCDF01:30:393600:08:5941000:51:2323.3501:00:2242900:30:170:00:000:00:00
58 6020GEMMA SABATÉ BOVÉLLICENCIA DE DIAV1F01:31:0042400:17:1842400:54:4421.9201:12:0211100:18:580:00:000:00:00
59 5038ADELAIDA CABO PAVIAABSOLUT SPORTABF01:31:1841200:15:3938000:47:5825.0201:03:3742400:27:410:00:000:00:00
60 1842CLÀUDIA JÚDEZ CLAPÉSABSOLUT SPORTJNF01:31:2436400:13:5940500:50:3923.6901:04:3841800:26:460:00:000:00:00
61 5033MIREIA PÉREZ GARCÍAABSOLUT SPORTCDF01:32:3333200:13:1642000:52:5422.6801:06:1041700:26:230:00:000:00:00
62 4059SANDRA MESA MANSOCLUB TRIATLO I RUN WITH LABF01:32:3841300:15:4241500:52:1123.0001:07:5339700:24:450:00:000:00:00
63 6027INMA RODRIGUEZ LIMALLICENCIA DE DIAABF01:33:2042200:17:0440900:51:1123.4501:08:1539900:25:050:00:000:00:00
64 6017ADA SILVIA PRUÑONOSA SOLSLLICENCIA DE DIASUB23F01:34:0240600:15:1941900:52:5422.6801:08:1341000:25:490:00:000:00:00
65 5156MARINA OBRADORS CANALSCLUB TRI5USUB23F01:34:2337400:14:2641400:52:0323.0501:06:2942500:27:540:00:000:00:00
66 7026MARTA MILÁN TARRAGÓLLICENCIA DE DIAABF01:40:1242800:20:5642601:00:2319.8701:21:1910900:18:530:00:000:00:00






FEDERACIÓ CATALANA DE TRIATLÓ
SEU CENTRAL I CORRESPONDÈNCIA: Rambla Guipúscoa 23-25 2on-D · 08018 Barcelona · Tel / Fax : 93 307 93 35
ATENCIÓ AL PÚBLIC: Passeig Joan de Borbó, 93 (Club Natació Barcelona) · 08039 Barcelona · Tel / Fax : 93 307 93 32